createdAt,value
2023-04-13T00:01:19.565Z,7.80
2023-04-13T00:03:47.926Z,7.80
2023-04-13T00:06:17.315Z,7.80
2023-04-13T00:08:47.799Z,7.80
2023-04-13T00:11:42.353Z,7.80
2023-04-13T00:14:10.707Z,7.80
2023-04-13T00:16:42.254Z,7.80
2023-04-13T00:19:10.528Z,7.80
2023-04-13T00:21:41.964Z,7.80
2023-04-13T00:24:10.161Z,7.80
2023-04-13T00:26:40.049Z,7.80
2023-04-13T00:29:10.218Z,7.70
2023-04-13T00:31:39.863Z,7.70
2023-04-13T00:34:08.152Z,7.60
2023-04-13T00:36:36.338Z,7.60
2023-04-13T00:39:04.528Z,7.50
2023-04-13T00:41:32.751Z,7.50
2023-04-13T00:44:00.969Z,7.50
2023-04-13T00:46:31.594Z,7.40
2023-04-13T00:49:01.929Z,7.40
2023-04-13T00:51:33.172Z,7.30
2023-04-13T00:54:02.268Z,7.30
2023-04-13T00:56:33.771Z,7.20
2023-04-13T00:59:04.612Z,7.10
2023-04-13T01:01:34.867Z,7.10
2023-04-13T01:04:05.042Z,7.10
2023-04-13T01:06:50.207Z,7.10
2023-04-13T01:09:25.254Z,7.10
2023-04-13T01:12:00.930Z,7.00
2023-04-13T01:14:41.194Z,7.10
2023-04-13T01:17:22.783Z,7.10
2023-04-13T01:19:57.393Z,7.10
2023-04-13T01:22:29.557Z,7.00
2023-04-13T01:25:12.884Z,7.10
2023-04-13T01:27:47.237Z,7.00
2023-04-13T01:30:42.097Z,7.00
2023-04-13T01:33:12.959Z,7.00
2023-04-13T01:35:41.713Z,7.00
2023-04-13T01:38:14.727Z,7.00
2023-04-13T01:40:44.720Z,6.90
2023-04-13T01:43:14.253Z,6.80
2023-04-13T01:46:27.007Z,6.80
2023-04-13T01:49:11.678Z,6.70
2023-04-13T01:51:59.803Z,6.70
2023-04-13T01:54:31.546Z,6.70
2023-04-13T01:57:05.311Z,6.70
2023-04-13T01:59:36.951Z,6.70
2023-04-13T02:02:07.955Z,6.60
2023-04-13T02:04:40.353Z,6.60
2023-04-13T02:07:10.554Z,6.60
2023-04-13T02:09:43.049Z,6.60
2023-04-13T02:12:11.284Z,6.60
2023-04-13T02:14:46.180Z,6.50
2023-04-13T02:17:17.620Z,6.60
2023-04-13T02:19:48.458Z,6.50
2023-04-13T02:22:19.176Z,6.50
2023-04-13T02:24:50.194Z,6.50
2023-04-13T02:27:18.535Z,6.50
2023-04-13T02:29:49.315Z,6.50
2023-04-13T02:32:23.090Z,6.40
2023-04-13T02:34:51.545Z,6.40
2023-04-13T02:37:20.551Z,6.40
2023-04-13T02:39:51.530Z,6.40
2023-04-13T02:42:20.175Z,6.30
2023-04-13T02:44:51.106Z,6.30
2023-04-13T02:47:19.969Z,6.30
2023-04-13T02:49:48.425Z,6.20
2023-04-13T02:52:37.189Z,6.20
2023-04-13T02:55:09.041Z,6.20
2023-04-13T03:00:37.171Z,6.20
2023-04-13T03:03:11.368Z,6.20
2023-04-13T03:05:44.771Z,6.20
2023-04-13T03:08:17.445Z,6.20
2023-04-13T03:11:11.506Z,6.20
2023-04-13T03:13:45.741Z,6.10
2023-04-13T03:16:17.853Z,6.20
2023-04-13T03:18:48.574Z,6.30
2023-04-13T03:21:42.900Z,6.30
2023-04-13T03:24:15.013Z,6.30
2023-04-13T03:26:43.322Z,6.40
2023-04-13T03:29:15.837Z,6.40
2023-04-13T03:31:48.901Z,6.40
2023-04-13T03:34:17.368Z,6.40
2023-04-13T03:36:48.897Z,6.40
2023-04-13T03:39:20.619Z,6.40
2023-04-13T03:43:23.885Z,6.40
2023-04-13T03:44:47.645Z,6.40
2023-04-13T03:47:20.467Z,6.50
2023-04-13T03:49:49.043Z,6.50
2023-04-13T03:55:24.883Z,6.50
2023-04-13T03:57:59.107Z,6.50
2023-04-13T04:00:56.978Z,6.50
2023-04-13T04:04:17.219Z,6.50
2023-04-13T04:06:32.263Z,6.60
2023-04-13T04:09:11.830Z,6.60
2023-04-13T04:11:48.545Z,6.70
2023-04-13T04:17:25.779Z,6.80
2023-04-13T04:19:59.447Z,6.90
2023-04-13T04:22:30.257Z,7.00
2023-04-13T04:25:00.283Z,7.00
2023-04-13T04:27:58.804Z,7.10
2023-04-13T04:30:29.961Z,7.20
2023-04-13T04:32:59.071Z,7.30
2023-04-13T04:35:43.256Z,7.40
2023-04-13T04:38:24.471Z,7.50
2023-04-13T04:40:57.626Z,7.50
2023-04-13T04:43:27.248Z,7.60
2023-04-13T04:49:29.584Z,7.80
2023-04-13T04:52:00.920Z,7.90
2023-04-13T04:54:35.399Z,8.00
2023-04-13T04:57:10.512Z,8.10
2023-04-13T04:59:40.917Z,8.20
2023-04-13T05:02:09.158Z,8.20
2023-04-13T05:04:37.897Z,8.30
2023-04-13T05:07:07.762Z,8.50
2023-04-13T05:09:41.164Z,8.50
2023-04-13T05:12:09.284Z,8.60
2023-04-13T05:14:40.399Z,8.70
2023-04-13T05:17:09.143Z,8.80
2023-04-13T05:19:40.572Z,8.90
2023-04-13T05:22:16.219Z,8.90
2023-04-13T05:27:59.197Z,9.20
2023-04-13T05:30:28.953Z,9.40
2023-04-13T05:32:57.227Z,9.50
2023-04-13T05:35:28.038Z,9.60
2023-04-13T05:38:01.277Z,9.80
2023-04-13T05:40:33.715Z,10.00
2023-04-13T05:43:02.819Z,10.20
2023-04-13T05:45:37.785Z,10.30
2023-04-13T05:48:10.912Z,10.50
2023-04-13T05:50:39.309Z,10.60
2023-04-13T05:53:27.399Z,10.80
2023-04-13T05:55:57.345Z,10.90
2023-04-13T05:58:27.356Z,11.00
2023-04-13T06:01:11.032Z,11.10
2023-04-13T06:03:39.548Z,11.10
2023-04-13T06:06:08.627Z,11.10
2023-04-13T06:08:38.905Z,11.10
2023-04-13T06:11:08.051Z,11.10
2023-04-13T06:13:38.103Z,11.20
2023-04-13T06:16:10.395Z,11.30
2023-04-13T06:18:38.641Z,11.40
2023-04-13T06:21:08.413Z,11.40
2023-04-13T06:23:38.559Z,11.50
2023-04-13T06:26:15.146Z,11.60
2023-04-13T06:29:27.406Z,11.70
2023-04-13T06:32:07.798Z,11.60
2023-04-13T06:34:37.024Z,11.70
2023-04-13T06:37:11.389Z,11.70
2023-04-13T06:39:50.823Z,11.70
2023-04-13T06:42:21.495Z,11.80
2023-04-13T06:45:05.291Z,11.90
2023-04-13T06:47:41.052Z,11.90
2023-04-13T06:50:13.978Z,12.00
2023-04-13T06:52:44.274Z,12.20
2023-04-13T06:55:17.477Z,12.30
2023-04-13T06:57:49.037Z,12.30
2023-04-13T07:00:29.634Z,12.40
2023-04-13T07:03:02.153Z,12.40
2023-04-13T07:05:30.975Z,12.50
2023-04-13T07:08:07.518Z,12.60
2023-04-13T07:10:40.833Z,12.70
2023-04-13T07:13:17.464Z,12.70
2023-04-13T07:15:47.008Z,12.90
2023-04-13T07:18:17.677Z,13.10
2023-04-13T07:20:47.425Z,13.20
2023-04-13T07:23:17.673Z,13.30
2023-04-13T07:25:51.822Z,13.30
2023-04-13T07:28:25.643Z,13.40
2023-04-13T07:30:58.986Z,13.50
2023-04-13T07:33:27.300Z,13.60
2023-04-13T07:35:57.673Z,13.80
2023-04-13T07:38:29.890Z,14.10
2023-04-13T07:40:59.565Z,14.30
2023-04-13T07:43:35.042Z,14.60
2023-04-13T07:46:11.887Z,14.90
2023-04-13T07:48:44.618Z,15.60
2023-04-13T07:51:23.465Z,16.40
2023-04-13T07:53:53.701Z,17.70
2023-04-13T07:56:24.095Z,19.00
2023-04-13T07:58:54.800Z,19.90
2023-04-13T08:01:23.197Z,20.90
2023-04-13T08:03:51.783Z,21.90
2023-04-13T08:06:23.926Z,22.90
2023-04-13T08:08:53.533Z,23.80
2023-04-13T08:11:23.759Z,23.80
2023-04-13T08:13:57.764Z,23.50
2023-04-13T08:16:26.000Z,23.30
2023-04-13T08:18:54.601Z,23.50
2023-04-13T08:21:23.835Z,23.20
2023-04-13T08:23:52.173Z,23.60
2023-04-13T08:26:21.877Z,24.00
2023-04-13T08:28:53.078Z,24.70
2023-04-13T08:31:21.907Z,25.40
2023-04-13T08:33:58.720Z,26.20
2023-04-13T08:36:27.536Z,27.00
2023-04-13T08:39:05.434Z,27.70
2023-04-13T08:41:40.435Z,28.60
2023-04-13T08:44:13.607Z,29.30
2023-04-13T08:46:46.526Z,30.10
2023-04-13T08:49:17.079Z,30.90
2023-04-13T08:52:08.967Z,31.40
2023-04-13T08:54:38.081Z,32.20
2023-04-13T08:57:12.302Z,32.40
2023-04-13T08:59:44.715Z,32.50
2023-04-13T09:02:13.589Z,33.00
2023-04-13T09:04:55.467Z,33.50
2023-04-13T09:07:29.599Z,33.50
2023-04-13T09:10:05.941Z,33.20
2023-04-13T09:12:35.028Z,33.00
2023-04-13T09:15:07.242Z,32.20
2023-04-13T09:17:42.593Z,31.80
2023-04-13T09:20:17.167Z,31.70
2023-04-13T09:22:45.798Z,31.60
2023-04-13T09:25:24.961Z,31.20
2023-04-13T09:27:53.421Z,30.90
2023-04-13T09:30:24.746Z,30.60
2023-04-13T09:33:05.248Z,30.70
2023-04-13T09:35:33.924Z,31.20
2023-04-13T09:38:02.858Z,31.50
2023-04-13T09:40:31.643Z,32.20
2023-04-13T09:43:02.237Z,32.70
2023-04-13T09:46:22.440Z,33.10
2023-04-13T09:49:03.624Z,33.60
2023-04-13T09:51:41.639Z,33.60
2023-04-13T09:54:13.907Z,33.90
2023-04-13T09:56:47.077Z,34.10
2023-04-13T09:59:15.523Z,34.30
2023-04-13T10:02:10.885Z,34.20
2023-04-13T10:04:40.568Z,33.90
2023-04-13T10:07:10.103Z,33.20
2023-04-13T10:09:38.514Z,31.80
2023-04-13T10:12:10.957Z,31.00
2023-04-13T10:14:43.278Z,30.50
2023-04-13T10:17:32.481Z,30.40
2023-04-13T10:20:10.622Z,30.70
2023-04-13T10:22:40.219Z,30.90
2023-04-13T10:25:21.733Z,31.10
2023-04-13T10:27:58.630Z,31.40
2023-04-13T10:30:28.082Z,31.70
2023-04-13T10:33:07.675Z,31.70
2023-04-13T10:35:39.482Z,31.60
2023-04-13T10:38:10.811Z,31.60
2023-04-13T10:40:46.308Z,31.30
2023-04-13T10:43:25.297Z,31.30
2023-04-13T10:46:06.443Z,31.30
2023-04-13T10:48:34.860Z,31.30
2023-04-13T10:51:04.881Z,31.30
2023-04-13T10:53:35.178Z,31.10
2023-04-13T10:56:05.328Z,31.10
2023-04-13T10:58:34.523Z,31.00
2023-04-13T11:01:03.451Z,30.50
2023-04-13T11:03:32.094Z,29.80
2023-04-13T11:06:01.212Z,29.10
2023-04-13T11:08:32.687Z,28.40
2023-04-13T11:11:01.520Z,27.70
2023-04-13T11:13:30.154Z,27.20
2023-04-13T11:16:05.475Z,27.00
2023-04-13T11:18:34.192Z,26.90
2023-04-13T11:21:06.065Z,26.90
2023-04-13T11:23:38.439Z,27.00
2023-04-13T11:26:07.098Z,27.00
2023-04-13T11:28:40.591Z,26.90
2023-04-13T11:31:09.382Z,26.90
2023-04-13T11:33:40.017Z,26.40
2023-04-13T11:36:11.839Z,26.10
2023-04-13T11:38:53.490Z,25.90
2023-04-13T11:41:21.840Z,25.60
2023-04-13T11:43:56.000Z,25.40
2023-04-13T11:46:25.586Z,25.10
2023-04-13T11:48:54.438Z,24.90
2023-04-13T11:51:23.727Z,24.90
2023-04-13T11:53:56.838Z,24.80
2023-04-13T11:56:28.065Z,24.70
2023-04-13T11:58:57.766Z,24.70
2023-04-13T12:01:33.889Z,24.80
2023-04-13T12:06:44.289Z,24.50
2023-04-13T12:09:18.039Z,24.50
2023-04-13T12:12:15.935Z,24.40
2023-04-13T12:17:38.424Z,23.60
2023-04-13T12:20:07.686Z,23.20
2023-04-13T12:25:19.862Z,23.10
2023-04-13T12:27:56.607Z,23.20
2023-04-13T12:30:24.992Z,23.30
2023-04-13T12:32:55.082Z,23.30
2023-04-13T12:35:26.027Z,23.20
2023-04-13T12:37:56.521Z,23.20
2023-04-13T12:40:26.569Z,23.30
2023-04-13T12:42:54.741Z,23.30
2023-04-13T12:45:23.052Z,23.30
2023-04-13T12:47:51.345Z,23.30
2023-04-13T12:50:19.589Z,23.30
2023-04-13T12:52:50.028Z,23.20
2023-04-13T12:55:18.345Z,23.00
2023-04-13T12:57:47.887Z,22.70
2023-04-13T13:00:17.417Z,22.60
2023-04-13T13:02:46.091Z,22.50
2023-04-13T13:05:14.331Z,22.30
2023-04-13T13:07:42.532Z,22.30
2023-04-13T13:10:25.786Z,22.30
2023-04-13T13:13:00.620Z,22.20
2023-04-13T13:15:28.736Z,22.00
2023-04-13T13:17:58.236Z,22.00
2023-04-13T13:20:26.399Z,22.00
2023-04-13T13:22:54.573Z,21.90
2023-04-13T13:25:22.785Z,21.70
2023-04-13T13:30:24.330Z,21.60
2023-04-13T13:32:52.544Z,21.70
2023-04-13T13:35:20.820Z,21.60
2023-04-13T13:37:49.069Z,21.50
2023-04-13T13:40:17.733Z,21.30
2023-04-13T13:42:51.150Z,21.20
2023-04-13T13:45:20.961Z,21.00
2023-04-13T13:48:02.884Z,20.90
2023-04-13T13:50:48.079Z,20.90
2023-04-13T13:53:16.459Z,20.70
2023-04-13T13:55:44.786Z,20.60
2023-04-13T13:58:13.157Z,20.50
2023-04-13T14:00:41.467Z,20.50
2023-04-13T14:03:27.475Z,20.50
2023-04-13T14:05:59.099Z,20.40
2023-04-13T14:08:33.511Z,20.50
2023-04-13T14:11:16.889Z,20.50
2023-04-13T14:13:45.777Z,20.50
2023-04-13T14:16:14.034Z,20.40
2023-04-13T14:18:43.711Z,20.40
2023-04-13T14:21:12.632Z,20.20
2023-04-13T14:23:41.217Z,20.20
2023-04-13T14:26:09.594Z,20.20
2023-04-13T14:28:38.405Z,20.10
2023-04-13T14:31:06.694Z,20.10
2023-04-13T14:33:35.235Z,20.10
2023-04-13T14:36:05.226Z,20.10
2023-04-13T14:38:34.985Z,20.10
2023-04-13T14:41:03.287Z,20.10
2023-04-13T14:43:31.702Z,20.10
2023-04-13T14:45:59.974Z,20.00
2023-04-13T14:48:32.056Z,20.00
2023-04-13T14:51:00.818Z,20.00
2023-04-13T14:53:31.298Z,20.10
2023-04-13T14:55:59.483Z,20.10
2023-04-13T14:58:27.629Z,20.20
2023-04-13T15:00:55.808Z,20.20
2023-04-13T15:03:24.458Z,20.20
2023-04-13T15:05:58.359Z,20.20
2023-04-13T15:08:32.650Z,20.10
2023-04-13T15:11:03.130Z,20.00
2023-04-13T15:13:31.311Z,20.00
2023-04-13T15:15:59.441Z,19.90
2023-04-13T15:18:27.669Z,19.90
2023-04-13T15:20:56.219Z,19.90
2023-04-13T15:23:27.415Z,19.90
2023-04-13T15:25:57.113Z,19.90
2023-04-13T15:28:25.511Z,19.90
2023-04-13T15:30:53.697Z,19.90
2023-04-13T15:33:24.913Z,20.00
2023-04-13T15:35:53.662Z,19.90
2023-04-13T15:38:21.832Z,19.90
2023-04-13T15:40:49.995Z,19.90
2023-04-13T15:43:19.560Z,19.90
2023-04-13T15:45:47.899Z,19.80
2023-04-13T15:48:16.880Z,19.90
2023-04-13T15:50:45.070Z,19.90
2023-04-13T15:53:13.221Z,19.70
2023-04-13T15:55:42.525Z,19.70
2023-04-13T15:58:12.765Z,19.70
2023-04-13T16:00:42.316Z,19.60
2023-04-13T16:03:10.878Z,19.60
2023-04-13T16:05:39.203Z,19.50
2023-04-13T16:08:08.031Z,19.50
2023-04-13T16:10:37.206Z,19.50
2023-04-13T16:13:06.430Z,19.50
2023-04-13T16:15:36.951Z,19.50
2023-04-13T16:18:06.814Z,19.50
2023-04-13T16:20:35.326Z,19.40
2023-04-13T16:23:05.406Z,19.30
2023-04-13T16:25:34.451Z,19.30
2023-04-13T16:28:03.010Z,19.20
2023-04-13T16:30:32.086Z,19.10
2023-04-13T16:33:00.350Z,19.10
2023-04-13T16:35:30.035Z,19.00
2023-04-13T16:37:58.183Z,18.90
2023-04-13T16:40:26.357Z,18.80
2023-04-13T16:42:54.441Z,18.70
2023-04-13T16:45:24.462Z,18.60
2023-04-13T16:47:54.541Z,18.60
2023-04-13T16:50:30.420Z,18.50
2023-04-13T16:53:01.480Z,18.50
2023-04-13T16:55:31.233Z,18.40
2023-04-13T16:57:59.434Z,18.30
2023-04-13T17:00:30.752Z,18.20
2023-04-13T17:02:59.155Z,18.10
2023-04-13T17:05:28.525Z,18.10
2023-04-13T17:07:56.749Z,18.00
2023-04-13T17:10:26.519Z,17.90
2023-04-13T17:12:54.700Z,17.80
2023-04-13T17:15:23.008Z,17.70
2023-04-13T17:17:51.366Z,17.60
2023-04-13T17:20:20.236Z,17.60
2023-04-13T17:22:48.788Z,17.50
2023-04-13T17:25:17.768Z,17.30
2023-04-13T17:27:47.329Z,17.20
2023-04-13T17:30:15.905Z,17.10
2023-04-13T17:32:44.065Z,17.10
2023-04-13T17:35:16.307Z,17.00
2023-04-13T17:37:44.482Z,16.90
2023-04-13T17:40:13.249Z,16.80
2023-04-13T17:42:41.425Z,16.60
2023-04-13T17:45:12.865Z,16.60
2023-04-13T17:47:41.153Z,16.50
2023-04-13T17:50:10.343Z,16.40
2023-04-13T17:52:38.520Z,16.40
2023-04-13T17:55:07.425Z,16.30
2023-04-13T17:57:36.139Z,16.30
2023-04-13T18:00:04.806Z,16.20
2023-04-13T18:02:34.556Z,16.10
2023-04-13T18:05:02.782Z,16.00
2023-04-13T18:07:33.362Z,16.00
2023-04-13T18:10:01.647Z,15.90
2023-04-13T18:12:29.832Z,15.80
2023-04-13T18:15:00.260Z,15.80
2023-04-13T18:17:30.558Z,15.70
2023-04-13T18:20:05.442Z,15.60
2023-04-13T18:22:33.994Z,15.60
2023-04-13T18:25:02.271Z,15.50
2023-04-13T18:27:30.665Z,15.50
2023-04-13T18:30:01.347Z,15.50
2023-04-13T18:32:32.416Z,15.40
2023-04-13T18:35:31.357Z,15.40
2023-04-13T18:38:01.719Z,15.30
2023-04-13T18:40:39.880Z,15.20
2023-04-13T18:43:08.758Z,15.20
2023-04-13T18:45:37.008Z,15.10
2023-04-13T18:48:06.520Z,15.10
2023-04-13T18:50:38.632Z,15.00
2023-04-13T18:53:32.392Z,14.90
2023-04-13T18:56:00.797Z,14.90
2023-04-13T18:58:28.941Z,14.80
2023-04-13T19:00:57.099Z,14.70
2023-04-13T19:03:25.458Z,14.60
2023-04-13T19:05:57.319Z,14.60
2023-04-13T19:08:25.682Z,14.50
2023-04-13T19:10:53.956Z,14.50
2023-04-13T19:13:22.088Z,14.40
2023-04-13T19:15:50.479Z,14.40
2023-04-13T19:18:18.717Z,14.40
2023-04-13T19:20:46.919Z,14.30
2023-04-13T19:23:16.632Z,14.30
2023-04-13T19:25:44.940Z,14.30
2023-04-13T19:28:13.102Z,14.20
2023-04-13T19:30:41.266Z,14.20
2023-04-13T19:33:09.510Z,14.20
2023-04-13T19:35:39.614Z,14.10
2023-04-13T19:38:11.742Z,14.00
2023-04-13T19:40:45.035Z,14.00
2023-04-13T19:43:20.838Z,13.90
2023-04-13T19:45:49.058Z,13.90
2023-04-13T19:48:17.251Z,13.90
2023-04-13T19:50:46.252Z,13.90
2023-04-13T19:53:14.451Z,13.80
2023-04-13T19:55:44.020Z,13.80
2023-04-13T19:58:12.278Z,13.70
2023-04-13T20:00:40.495Z,13.70
2023-04-13T20:03:08.933Z,13.70
2023-04-13T20:05:38.288Z,13.70
2023-04-13T20:08:06.628Z,13.60
2023-04-13T20:10:34.778Z,13.60
2023-04-13T20:13:04.282Z,13.40
2023-04-13T20:15:34.986Z,13.40
2023-04-13T20:18:06.240Z,13.40
2023-04-13T20:20:37.984Z,13.40
2023-04-13T20:23:07.997Z,13.40
2023-04-13T20:25:37.384Z,13.40
2023-04-13T20:28:07.295Z,13.30
2023-04-13T20:30:35.644Z,13.30
2023-04-13T20:33:06.277Z,13.20
2023-04-13T20:35:35.341Z,13.20
2023-04-13T20:38:04.868Z,13.20
2023-04-13T20:40:36.160Z,13.20
2023-04-13T20:43:08.358Z,13.10
2023-04-13T20:45:37.293Z,13.10
2023-04-13T20:50:46.060Z,13.00
2023-04-13T20:53:15.077Z,13.00
2023-04-13T20:55:43.256Z,12.90
2023-04-13T20:58:12.784Z,12.90
2023-04-13T21:00:42.550Z,12.80
2023-04-13T21:03:11.112Z,12.80
2023-04-13T21:05:39.439Z,12.80
2023-04-13T21:08:07.786Z,12.80
2023-04-13T21:10:39.639Z,12.70
2023-04-13T21:13:10.645Z,12.70
2023-04-13T21:15:40.334Z,12.70
2023-04-13T21:18:08.610Z,12.70
2023-04-13T21:20:36.939Z,12.70
2023-04-13T21:23:05.091Z,12.60
2023-04-13T21:25:33.321Z,12.60
2023-04-13T21:28:03.034Z,12.60
2023-04-13T21:30:31.260Z,12.60
2023-04-13T21:33:00.878Z,12.50
2023-04-13T21:35:29.845Z,12.50
2023-04-13T21:37:57.990Z,12.50
2023-04-13T21:40:26.144Z,12.40
2023-04-13T21:42:54.549Z,12.40
2023-04-13T21:45:23.734Z,12.40
2023-04-13T21:47:54.833Z,12.30
2023-04-13T21:50:24.461Z,12.30
2023-04-13T21:52:52.622Z,12.30
2023-04-13T21:55:23.489Z,12.30
2023-04-13T21:57:51.664Z,12.20
2023-04-13T22:00:20.498Z,12.20
2023-04-13T22:02:53.679Z,12.10
2023-04-13T22:05:22.112Z,12.10
2023-04-13T22:07:53.734Z,12.10
2023-04-13T22:10:25.091Z,12.00
2023-04-13T22:12:53.270Z,12.00
2023-04-13T22:15:21.472Z,12.00
2023-04-13T22:17:55.081Z,12.00
2023-04-13T22:20:23.398Z,11.90
2023-04-13T22:22:52.971Z,11.90
2023-04-13T22:25:25.199Z,11.90
2023-04-13T22:28:00.915Z,11.90
2023-04-13T22:30:29.950Z,11.80
2023-04-13T22:32:59.084Z,11.80
2023-04-13T22:35:27.448Z,11.80
2023-04-13T22:37:59.061Z,11.80
2023-04-13T22:40:29.604Z,11.80
2023-04-13T22:42:57.879Z,11.80
2023-04-13T22:45:29.032Z,11.80
2023-04-13T22:47:57.211Z,11.80
2023-04-13T22:50:25.674Z,11.80
2023-04-13T22:52:54.368Z,11.70
2023-04-13T22:55:24.050Z,11.70
2023-04-13T22:57:55.172Z,11.70
2023-04-13T23:00:23.676Z,11.70
2023-04-13T23:02:55.842Z,11.70
2023-04-13T23:05:24.392Z,11.70
2023-04-13T23:07:52.664Z,11.70
2023-04-13T23:10:20.904Z,11.70
2023-04-13T23:12:50.515Z,11.60
2023-04-13T23:15:21.076Z,11.60
2023-04-13T23:17:49.286Z,11.60
2023-04-13T23:20:17.600Z,11.60
2023-04-13T23:22:45.853Z,11.60
2023-04-13T23:25:14.009Z,11.60
2023-04-13T23:27:44.386Z,11.50
2023-04-13T23:30:14.528Z,11.50
2023-04-13T23:32:42.752Z,11.50
2023-04-13T23:35:11.247Z,11.50
2023-04-13T23:37:40.655Z,11.40
2023-04-13T23:40:10.850Z,11.40
2023-04-13T23:42:39.030Z,11.40
2023-04-13T23:45:09.828Z,11.40
2023-04-13T23:47:39.483Z,11.40
2023-04-13T23:50:08.783Z,11.40
2023-04-13T23:52:37.087Z,11.30
2023-04-13T23:55:05.689Z,11.30
2023-04-13T23:57:34.965Z,11.30
